Terminal Aerodrome Forecast
Issued by NWS

Home | Current Version | Previous Version | Graphics & Text | Print | Product List | Glossary On
Versions: 1 2 3 4 5 6 7 8 9 10 11 12 13 14 15 16 17 18 19 20 21 22 23 24 25 26 27 28 29 30 31 32 33 34
000
FTUS43 KLOT 232337
TAFDPA
TAF
KDPA 232337Z 2400/2424 18009KT P6SM FEW100 FEW250
     FM240100 15006KT P6SM BKN150
     FM241500 15010KT P6SM VCSH SCT040 BKN090
     FM241900 15011G17KT P6SM SCT040 BKN090=

USA.gov is the U.S. government's official web portal to all federal, state and local government web resources and services.